createdAt,value
2022-08-27T00:01:57.342Z,8.50
2022-08-27T00:04:24.057Z,8.53
2022-08-27T00:06:50.672Z,8.00
2022-08-27T00:09:23.778Z,8.30
2022-08-27T00:11:53.855Z,7.47
2022-08-27T00:14:20.615Z,6.50
2022-08-27T00:16:47.264Z,5.93
2022-08-27T00:19:15.216Z,7.10
2022-08-27T00:21:41.759Z,5.90
2022-08-27T00:24:08.693Z,6.90
2022-08-27T00:26:36.708Z,6.33
2022-08-27T00:29:06.009Z,5.90
2022-08-27T00:31:32.630Z,6.40
2022-08-27T00:33:59.209Z,5.50
2022-08-27T00:36:27.223Z,5.67
2022-08-27T00:38:54.258Z,6.53
2022-08-27T00:41:22.224Z,5.27
2022-08-27T00:43:50.965Z,6.83
2022-08-27T00:46:24.893Z,5.40
2022-08-27T00:48:53.861Z,6.27
2022-08-27T00:51:20.533Z,6.30
2022-08-27T00:53:48.814Z,6.00
2022-08-27T00:56:21.751Z,5.47
2022-08-27T00:58:50.147Z,5.90
2022-08-27T01:01:18.840Z,5.60
2022-08-27T01:03:48.240Z,5.43
2022-08-27T01:06:17.461Z,4.90
2022-08-27T01:08:47.281Z,5.20
2022-08-27T01:11:15.257Z,5.27
2022-08-27T01:13:58.913Z,5.07
2022-08-27T01:16:32.564Z,5.67
2022-08-27T01:18:59.397Z,5.90
2022-08-27T01:21:30.851Z,5.13
2022-08-27T01:24:05.469Z,6.07
2022-08-27T01:26:33.980Z,5.03
2022-08-27T01:29:01.089Z,5.97
2022-08-27T01:31:27.684Z,5.53
2022-08-27T01:33:56.299Z,5.23
2022-08-27T01:36:22.952Z,5.47
2022-08-27T01:38:49.509Z,6.37
2022-08-27T01:41:17.853Z,6.23
2022-08-27T01:43:45.804Z,4.63
2022-08-27T01:46:13.825Z,5.00
2022-08-27T01:48:42.061Z,5.07
2022-08-27T01:51:09.315Z,4.40
2022-08-27T01:53:35.874Z,4.50
2022-08-27T01:56:02.887Z,4.37
2022-08-27T01:58:31.296Z,4.97
2022-08-27T02:01:04.213Z,4.07
2022-08-27T02:03:31.284Z,6.17
2022-08-27T02:05:57.879Z,4.73
2022-08-27T02:08:24.420Z,4.67
2022-08-27T02:10:51.056Z,4.33
2022-08-27T02:13:18.507Z,4.90
2022-08-27T02:15:45.378Z,4.40
2022-08-27T02:18:14.165Z,5.30
2022-08-27T02:20:41.045Z,4.83
2022-08-27T02:23:08.431Z,4.20
2022-08-27T02:25:35.198Z,5.83
2022-08-27T02:28:02.556Z,6.07
2022-08-27T02:30:30.689Z,3.63
2022-08-27T02:32:57.402Z,3.80
2022-08-27T02:35:25.448Z,4.73
2022-08-27T02:37:52.306Z,4.70
2022-08-27T02:40:22.043Z,4.03
2022-08-27T02:42:48.667Z,3.60
2022-08-27T02:45:16.750Z,4.03
2022-08-27T02:47:43.616Z,5.37
2022-08-27T02:50:11.825Z,3.90
2022-08-27T02:52:40.100Z,5.30
2022-08-27T02:55:07.615Z,4.37
2022-08-27T02:57:36.570Z,4.60
2022-08-27T03:00:05.497Z,4.10
2022-08-27T03:02:32.186Z,4.00
2022-08-27T03:04:58.830Z,4.67
2022-08-27T03:07:25.407Z,5.03
2022-08-27T03:09:53.268Z,4.73
2022-08-27T03:12:20.028Z,4.43
2022-08-27T03:14:49.381Z,4.27
2022-08-27T03:17:15.950Z,5.90
2022-08-27T03:19:42.527Z,4.17
2022-08-27T03:22:09.208Z,3.70
2022-08-27T03:24:36.035Z,4.10
2022-08-27T03:27:04.775Z,4.27
2022-08-27T03:29:31.454Z,5.57
2022-08-27T03:32:02.503Z,4.23
2022-08-27T03:34:29.077Z,4.03
2022-08-27T03:36:55.623Z,4.00
2022-08-27T03:39:22.312Z,4.30
2022-08-27T03:41:55.296Z,3.97
2022-08-27T03:44:24.272Z,3.87
2022-08-27T03:46:51.097Z,4.40
2022-08-27T03:49:20.574Z,4.60
2022-08-27T03:51:48.038Z,3.50
2022-08-27T03:54:14.620Z,3.97
2022-08-27T03:56:41.309Z,4.47
2022-08-27T03:59:07.907Z,5.00
2022-08-27T04:01:36.088Z,4.63
2022-08-27T04:04:03.250Z,4.00
2022-08-27T04:06:29.848Z,5.77
2022-08-27T04:08:56.608Z,4.03
2022-08-27T04:11:23.170Z,4.00
2022-08-27T04:13:49.761Z,4.47
2022-08-27T04:16:16.369Z,5.83
2022-08-27T04:18:44.391Z,4.57
2022-08-27T04:21:12.666Z,3.50
2022-08-27T04:23:40.303Z,3.37
2022-08-27T04:26:07.564Z,5.07
2022-08-27T04:28:38.390Z,4.80
2022-08-27T04:31:06.165Z,3.93
2022-08-27T04:33:34.295Z,3.50
2022-08-27T04:36:06.495Z,3.20
2022-08-27T04:38:33.167Z,3.43
2022-08-27T04:41:04.033Z,3.47
2022-08-27T04:43:30.573Z,4.10
2022-08-27T04:45:57.190Z,5.20
2022-08-27T04:48:23.904Z,4.60
2022-08-27T04:50:52.055Z,4.47
2022-08-27T04:53:20.006Z,6.17
2022-08-27T04:55:48.358Z,3.97
2022-08-27T04:58:15.537Z,3.80
2022-08-27T05:00:43.329Z,5.03
2022-08-27T05:03:10.643Z,5.47
2022-08-27T05:05:37.369Z,3.57
2022-08-27T05:08:10.286Z,4.10
2022-08-27T05:10:43.359Z,4.67
2022-08-27T05:13:10.331Z,3.53
2022-08-27T05:15:37.101Z,5.50
2022-08-27T05:18:04.569Z,5.03
2022-08-27T05:20:32.356Z,3.90
2022-08-27T05:22:59.304Z,3.63
2022-08-27T05:25:27.199Z,4.30
2022-08-27T05:27:55.154Z,3.27
2022-08-27T05:30:21.696Z,3.40
2022-08-27T05:32:48.265Z,3.80
2022-08-27T05:35:15.770Z,3.70
2022-08-27T05:37:42.479Z,3.90
2022-08-27T05:40:10.421Z,3.53
2022-08-27T05:42:37.017Z,6.73
2022-08-27T05:45:05.913Z,4.47
2022-08-27T05:47:32.465Z,4.37
2022-08-27T05:50:04.836Z,4.00
2022-08-27T05:52:32.350Z,3.93
2022-08-27T05:54:58.901Z,3.83
2022-08-27T05:57:25.478Z,5.30
2022-08-27T05:59:52.262Z,4.43
2022-08-27T06:02:20.390Z,3.53
2022-08-27T06:04:47.017Z,4.10
2022-08-27T06:07:13.598Z,4.33
2022-08-27T06:09:40.191Z,3.93
2022-08-27T06:12:08.168Z,4.80
2022-08-27T06:14:35.476Z,3.27
2022-08-27T06:17:02.213Z,4.70
2022-08-27T06:19:30.441Z,3.73
2022-08-27T06:22:01.246Z,4.73
2022-08-27T06:24:38.321Z,3.90
2022-08-27T06:27:05.305Z,4.40
2022-08-27T06:29:31.876Z,3.90
2022-08-27T06:31:58.428Z,4.23
2022-08-27T06:34:25.057Z,6.33
2022-08-27T06:36:52.959Z,4.77
2022-08-27T06:39:19.775Z,4.43
2022-08-27T06:41:47.885Z,5.17
2022-08-27T06:44:14.467Z,5.20
2022-08-27T06:46:41.918Z,3.93
2022-08-27T06:49:08.936Z,4.87
2022-08-27T06:51:38.272Z,4.10
2022-08-27T06:54:08.521Z,6.23
2022-08-27T06:56:35.741Z,4.43
2022-08-27T06:59:05.183Z,5.07
2022-08-27T07:01:40.333Z,4.13
2022-08-27T07:04:09.826Z,5.30
2022-08-27T07:06:38.513Z,5.50
2022-08-27T07:09:07.968Z,4.97
2022-08-27T07:11:35.190Z,4.07
2022-08-27T07:14:01.851Z,3.60
2022-08-27T07:16:29.442Z,4.80
2022-08-27T07:19:02.905Z,5.50
2022-08-27T07:21:31.313Z,4.27
2022-08-27T07:23:58.144Z,4.47
2022-08-27T07:26:26.348Z,5.00
2022-08-27T07:28:53.147Z,4.10
2022-08-27T07:31:22.037Z,5.03
2022-08-27T07:33:52.859Z,3.67
2022-08-27T07:36:20.404Z,3.30
2022-08-27T07:38:53.574Z,3.87
2022-08-27T07:41:31.174Z,3.87
2022-08-27T07:43:58.710Z,3.67
2022-08-27T07:46:26.275Z,4.93
2022-08-27T07:48:53.312Z,3.70
2022-08-27T07:51:21.452Z,5.10
2022-08-27T07:53:48.630Z,4.30
2022-08-27T07:56:16.394Z,4.47
2022-08-27T07:58:44.664Z,3.93
2022-08-27T08:01:11.391Z,4.47
2022-08-27T08:03:38.024Z,5.00
2022-08-27T08:06:06.153Z,3.00
2022-08-27T08:08:34.108Z,4.10
2022-08-27T08:11:00.696Z,4.37
2022-08-27T08:13:27.266Z,4.63
2022-08-27T08:15:56.746Z,5.93
2022-08-27T08:18:23.272Z,3.53
2022-08-27T08:20:58.051Z,4.17
2022-08-27T08:23:24.867Z,4.70
2022-08-27T08:25:51.414Z,3.43
2022-08-27T08:28:18.012Z,4.07
2022-08-27T08:30:44.614Z,2.83
2022-08-27T08:33:12.564Z,3.47
2022-08-27T08:35:40.594Z,3.87
2022-08-27T08:38:07.700Z,4.00
2022-08-27T08:40:37.088Z,2.93
2022-08-27T08:43:07.258Z,2.90
2022-08-27T08:45:38.548Z,3.00
2022-08-27T08:48:09.770Z,3.67
2022-08-27T08:50:50.052Z,4.17
2022-08-27T08:53:24.390Z,3.07
2022-08-27T08:55:55.092Z,3.17
2022-08-27T08:58:32.176Z,4.80
2022-08-27T09:01:01.825Z,3.20
2022-08-27T09:03:29.660Z,3.10
2022-08-27T09:06:02.177Z,3.53
2022-08-27T09:08:36.729Z,2.97
2022-08-27T09:11:12.090Z,4.13
2022-08-27T09:13:42.021Z,4.73
2022-08-27T09:16:08.960Z,3.37
2022-08-27T09:18:37.699Z,2.97
2022-08-27T09:21:17.829Z,3.10
2022-08-27T09:24:03.455Z,3.67
2022-08-27T09:26:33.991Z,2.63
2022-08-27T09:29:06.515Z,2.90
2022-08-27T09:31:36.628Z,4.30
2022-08-27T09:34:05.139Z,2.90
2022-08-27T09:36:33.136Z,3.07
2022-08-27T09:39:04.191Z,2.60
2022-08-27T09:41:36.129Z,2.73
2022-08-27T09:44:09.006Z,2.80
2022-08-27T09:46:35.687Z,3.30
2022-08-27T09:49:10.629Z,3.33
2022-08-27T09:51:40.896Z,2.90
2022-08-27T09:54:07.626Z,3.27
2022-08-27T09:56:36.528Z,2.90
2022-08-27T09:59:06.122Z,2.87
2022-08-27T10:01:34.908Z,2.10
2022-08-27T10:04:09.974Z,2.00
2022-08-27T10:06:45.406Z,2.47
2022-08-27T10:09:17.413Z,2.17
2022-08-27T10:11:50.335Z,2.30
2022-08-27T10:14:26.344Z,2.17
2022-08-27T10:17:09.033Z,2.20
2022-08-27T10:19:53.115Z,1.90
2022-08-27T10:22:33.132Z,1.90
2022-08-27T10:25:10.712Z,2.20
2022-08-27T10:27:50.157Z,1.97
2022-08-27T10:30:20.887Z,3.30
2022-08-27T10:32:59.360Z,2.13
2022-08-27T10:35:37.459Z,2.00
2022-08-27T10:38:22.943Z,2.40
2022-08-27T10:40:54.534Z,2.00
2022-08-27T10:43:33.116Z,2.37
2022-08-27T10:46:12.163Z,1.73
2022-08-27T10:48:42.568Z,2.90
2022-08-27T10:51:16.250Z,3.53
2022-08-27T10:53:55.031Z,2.30
2022-08-27T10:56:28.759Z,1.93
2022-08-27T10:59:06.022Z,2.03
2022-08-27T11:01:40.374Z,3.03
2022-08-27T11:04:13.654Z,2.67
2022-08-27T11:06:45.655Z,2.00
2022-08-27T11:09:18.510Z,2.43
2022-08-27T11:12:13.438Z,2.30
2022-08-27T11:14:41.078Z,2.20
2022-08-27T11:17:14.296Z,2.53
2022-08-27T11:19:50.351Z,2.30
2022-08-27T11:22:26.195Z,2.33
2022-08-27T11:24:59.175Z,2.40
2022-08-27T11:27:30.134Z,2.40
2022-08-27T11:30:02.419Z,1.93
2022-08-27T11:32:37.631Z,2.30
2022-08-27T11:35:13.475Z,2.13
2022-08-27T11:37:57.144Z,2.30
2022-08-27T11:40:39.168Z,2.23
2022-08-27T11:43:08.904Z,2.57
2022-08-27T11:45:37.986Z,2.13
2022-08-27T11:48:17.106Z,2.43
2022-08-27T11:50:54.513Z,1.83
2022-08-27T11:53:28.481Z,2.53
2022-08-27T11:55:57.043Z,2.57
2022-08-27T11:58:27.949Z,2.00
2022-08-27T12:00:54.771Z,2.50
2022-08-27T12:03:29.838Z,2.00
2022-08-27T12:06:17.614Z,2.10
2022-08-27T12:08:44.373Z,2.43
2022-08-27T12:11:41.364Z,1.97
2022-08-27T12:14:20.168Z,1.97
2022-08-27T12:16:56.475Z,2.20
2022-08-27T12:19:31.763Z,2.70
2022-08-27T12:22:15.232Z,2.50
2022-08-27T12:24:48.246Z,2.20
2022-08-27T12:27:31.455Z,2.30
2022-08-27T12:30:00.231Z,2.40
2022-08-27T12:32:31.285Z,2.63
2022-08-27T12:35:05.578Z,2.23
2022-08-27T12:37:38.754Z,2.20
2022-08-27T12:40:13.463Z,2.17
2022-08-27T12:42:41.473Z,2.83
2022-08-27T12:45:08.638Z,2.57
2022-08-27T12:47:40.584Z,2.33
2022-08-27T12:50:12.281Z,2.60
2022-08-27T12:52:56.950Z,2.67
2022-08-27T12:55:37.173Z,2.47
2022-08-27T12:58:15.701Z,2.47
2022-08-27T13:01:06.362Z,2.67
2022-08-27T13:03:37.254Z,2.57
2022-08-27T13:06:15.717Z,2.50
2022-08-27T13:08:42.303Z,2.43
2022-08-27T13:11:12.603Z,2.37
2022-08-27T13:13:42.319Z,2.30
2022-08-27T13:16:09.306Z,2.57
2022-08-27T13:18:36.831Z,2.40
2022-08-27T13:21:07.935Z,2.27
2022-08-27T13:23:34.781Z,2.70
2022-08-27T13:26:06.545Z,2.60
2022-08-27T13:28:35.291Z,2.93
2022-08-27T13:31:04.316Z,2.80
2022-08-27T13:33:33.917Z,2.80
2022-08-27T13:36:01.420Z,2.40
2022-08-27T13:38:31.687Z,2.30
2022-08-27T13:41:01.151Z,3.10
2022-08-27T13:43:34.175Z,2.40
2022-08-27T13:46:05.302Z,2.37
2022-08-27T13:48:33.428Z,2.33
2022-08-27T13:51:00.097Z,2.90
2022-08-27T13:53:29.023Z,2.50
2022-08-27T13:55:57.973Z,2.70
2022-08-27T13:58:27.402Z,2.70
2022-08-27T14:00:54.639Z,2.60
2022-08-27T14:03:31.411Z,2.50
2022-08-27T14:05:58.853Z,2.17
2022-08-27T14:08:29.906Z,2.47
2022-08-27T14:11:01.926Z,2.63
2022-08-27T14:13:29.187Z,2.57
2022-08-27T14:15:57.964Z,3.17
2022-08-27T14:18:47.998Z,2.63
2022-08-27T14:21:15.184Z,3.23
2022-08-27T14:23:41.773Z,2.43
2022-08-27T14:26:08.700Z,2.83
2022-08-27T14:28:35.308Z,2.97
2022-08-27T14:31:01.940Z,2.57
2022-08-27T14:33:29.950Z,3.00
2022-08-27T14:35:56.555Z,2.90
2022-08-27T14:38:24.327Z,2.60
2022-08-27T14:40:53.074Z,2.93
2022-08-27T14:43:19.914Z,5.10
2022-08-27T14:45:48.411Z,2.70
2022-08-27T14:48:19.058Z,2.90
2022-08-27T14:50:48.429Z,2.77
2022-08-27T14:53:15.599Z,5.20
2022-08-27T14:55:42.155Z,3.90
2022-08-27T14:58:13.399Z,4.47
2022-08-27T15:00:40.299Z,3.40
2022-08-27T15:03:06.915Z,3.30
2022-08-27T15:05:33.485Z,3.03
2022-08-27T15:08:01.499Z,5.90
2022-08-27T15:10:28.169Z,3.03
2022-08-27T15:12:54.726Z,3.23
2022-08-27T15:15:21.502Z,3.43
2022-08-27T15:17:48.143Z,2.83
2022-08-27T15:20:19.830Z,3.10
2022-08-27T15:22:50.541Z,2.93
2022-08-27T15:25:19.486Z,3.23
2022-08-27T15:27:46.059Z,3.20
2022-08-27T15:30:15.536Z,2.87
2022-08-27T15:32:43.982Z,2.70
2022-08-27T15:35:14.269Z,3.20
2022-08-27T15:37:42.196Z,4.63
2022-08-27T15:40:10.601Z,3.10
2022-08-27T15:42:38.576Z,3.70
2022-08-27T15:45:06.787Z,3.27
2022-08-27T15:47:34.126Z,3.10
2022-08-27T15:50:00.679Z,3.57
2022-08-27T15:52:33.469Z,3.27
2022-08-27T15:55:19.743Z,3.10
2022-08-27T15:57:47.710Z,4.40
2022-08-27T16:00:15.256Z,4.00
2022-08-27T16:02:42.916Z,3.23
2022-08-27T16:05:10.257Z,2.70
2022-08-27T16:07:36.906Z,3.17
2022-08-27T16:10:04.710Z,3.73
2022-08-27T16:12:31.252Z,3.03
2022-08-27T16:14:59.191Z,2.83
2022-08-27T16:17:26.260Z,3.43
2022-08-27T16:19:53.016Z,2.60
2022-08-27T16:22:19.633Z,3.30
2022-08-27T16:24:46.178Z,3.17
2022-08-27T16:27:12.707Z,3.23
2022-08-27T16:29:39.483Z,3.37
2022-08-27T16:32:09.774Z,3.03
2022-08-27T16:34:36.303Z,3.90
2022-08-27T16:37:02.839Z,3.17
2022-08-27T16:39:33.703Z,2.90
2022-08-27T16:42:01.305Z,3.17
2022-08-27T16:44:27.869Z,3.10
2022-08-27T16:46:54.426Z,2.90
2022-08-27T16:49:22.340Z,3.33
2022-08-27T16:51:48.944Z,2.70
2022-08-27T16:54:16.519Z,3.13
2022-08-27T16:56:43.073Z,2.53
2022-08-27T16:59:12.774Z,2.80
2022-08-27T17:01:40.267Z,2.90
2022-08-27T17:04:12.040Z,2.63
2022-08-27T17:06:44.435Z,3.10
2022-08-27T17:09:12.471Z,2.83
2022-08-27T17:11:41.675Z,3.07
2022-08-27T17:14:09.745Z,3.53
2022-08-27T17:16:37.176Z,3.70
2022-08-27T17:19:05.125Z,3.30
2022-08-27T17:21:34.694Z,3.40
2022-08-27T17:24:04.399Z,4.33
2022-08-27T17:26:37.384Z,2.90
2022-08-27T17:29:03.970Z,3.10
2022-08-27T17:31:33.224Z,4.33
2022-08-27T17:34:00.381Z,2.77
2022-08-27T17:36:28.685Z,3.23
2022-08-27T17:38:55.567Z,3.40
2022-08-27T17:41:29.651Z,2.70
2022-08-27T17:44:02.673Z,2.90
2022-08-27T17:46:29.337Z,2.57
2022-08-27T17:48:55.886Z,3.63
2022-08-27T17:51:22.726Z,3.17
2022-08-27T17:53:51.464Z,2.90
2022-08-27T17:56:20.866Z,3.13
2022-08-27T17:58:50.555Z,2.77
2022-08-27T18:01:23.746Z,2.63
2022-08-27T18:03:55.940Z,3.10
2022-08-27T18:06:22.601Z,3.23
2022-08-27T18:08:49.200Z,5.10
2022-08-27T18:11:17.389Z,3.17
2022-08-27T18:13:46.071Z,2.70
2022-08-27T18:16:13.995Z,3.47
2022-08-27T18:18:41.266Z,2.70
2022-08-27T18:21:08.796Z,2.40
2022-08-27T18:23:36.653Z,2.93
2022-08-27T18:26:04.130Z,3.20
2022-08-27T18:28:30.695Z,2.93
2022-08-27T18:30:57.341Z,2.97
2022-08-27T18:33:25.271Z,2.83
2022-08-27T18:35:51.954Z,2.77
2022-08-27T18:38:18.584Z,2.87
2022-08-27T18:40:47.302Z,2.80
2022-08-27T18:43:15.574Z,3.13
2022-08-27T18:45:42.382Z,2.93
2022-08-27T18:48:13.802Z,2.80
2022-08-27T18:50:45.883Z,3.00
2022-08-27T18:53:14.740Z,3.40
2022-08-27T18:55:41.297Z,2.93
2022-08-27T18:58:07.877Z,2.87
2022-08-27T19:00:34.851Z,3.53
2022-08-27T19:03:01.480Z,2.67
2022-08-27T19:05:28.857Z,2.83
2022-08-27T19:07:58.334Z,2.57
2022-08-27T19:10:25.971Z,2.47
2022-08-27T19:12:52.670Z,2.70
2022-08-27T19:15:19.971Z,2.50
2022-08-27T19:17:50.056Z,2.40
2022-08-27T19:20:16.835Z,3.07
2022-08-27T19:22:43.515Z,2.53
2022-08-27T19:25:11.792Z,2.10
2022-08-27T19:27:38.938Z,2.57
2022-08-27T19:30:07.595Z,2.70
2022-08-27T19:32:34.345Z,3.60
2022-08-27T19:35:00.923Z,2.80
2022-08-27T19:37:30.245Z,2.50
2022-08-27T19:39:57.734Z,2.40
2022-08-27T19:42:25.756Z,2.27
2022-08-27T19:44:52.317Z,2.63
2022-08-27T19:47:21.510Z,3.40
2022-08-27T19:49:48.232Z,3.33
2022-08-27T19:52:14.925Z,2.40
2022-08-27T19:54:56.991Z,2.47
2022-08-27T19:57:29.374Z,3.03
2022-08-27T19:59:55.908Z,2.00
2022-08-27T20:02:22.452Z,2.30
2022-08-27T20:05:14.156Z,2.27
2022-08-27T20:07:35.575Z,2.60
2022-08-27T20:10:08.256Z,2.63
2022-08-27T20:12:36.982Z,2.13
2022-08-27T20:15:03.894Z,2.00
2022-08-27T20:17:30.497Z,2.07
2022-08-27T20:19:57.207Z,4.70
2022-08-27T20:22:23.750Z,1.97
2022-08-27T20:24:50.320Z,2.20
2022-08-27T20:27:16.886Z,1.67
2022-08-27T20:29:44.882Z,1.70
2022-08-27T20:32:11.436Z,1.73
2022-08-27T20:34:37.997Z,1.97
2022-08-27T20:37:04.944Z,3.03
2022-08-27T20:39:31.619Z,2.10
2022-08-27T20:41:58.690Z,1.93
2022-08-27T20:44:25.236Z,1.93
2022-08-27T20:46:57.744Z,2.13
2022-08-27T20:49:24.586Z,3.90
2022-08-27T20:52:02.856Z,3.10
2022-08-27T20:54:31.692Z,1.87
2022-08-27T20:56:58.588Z,3.03
2022-08-27T20:59:25.288Z,2.10
2022-08-27T21:01:53.217Z,1.73
2022-08-27T21:04:19.877Z,2.00
2022-08-27T21:06:46.427Z,2.23
2022-08-27T21:09:13.107Z,2.70
2022-08-27T21:11:39.663Z,2.20
2022-08-27T21:14:06.382Z,1.93
2022-08-27T21:16:33.032Z,2.60
2022-08-27T21:19:01.094Z,1.93
2022-08-27T21:21:27.620Z,2.50
2022-08-27T21:23:54.186Z,2.90
2022-08-27T21:26:20.729Z,3.00
2022-08-27T21:28:47.309Z,1.60
2022-08-27T21:31:13.934Z,2.00
2022-08-27T21:33:40.613Z,1.90
2022-08-27T21:36:11.987Z,1.60
2022-08-27T21:38:39.309Z,1.67
2022-08-27T21:41:06.277Z,1.63
2022-08-27T21:43:32.867Z,2.27
2022-08-27T21:45:59.450Z,1.93
2022-08-27T21:48:26.800Z,2.67
2022-08-27T21:50:53.689Z,2.90
2022-08-27T21:53:22.613Z,1.50
2022-08-27T21:55:51.925Z,1.80
2022-08-27T21:58:18.581Z,1.63
2022-08-27T22:00:47.097Z,2.00
2022-08-27T22:03:16.759Z,2.37
2022-08-27T22:05:44.640Z,1.73
2022-08-27T22:08:12.871Z,2.00
2022-08-27T22:10:42.491Z,2.03
2022-08-27T22:13:09.168Z,2.17
2022-08-27T22:15:36.580Z,2.00
2022-08-27T22:18:03.773Z,1.80
2022-08-27T22:20:30.522Z,2.40
2022-08-27T22:22:57.214Z,1.50
2022-08-27T22:25:24.350Z,1.83
2022-08-27T22:27:52.729Z,1.90
2022-08-27T22:30:19.311Z,2.23
2022-08-27T22:32:46.353Z,2.30
2022-08-27T22:35:14.361Z,1.80
2022-08-27T22:37:41.209Z,1.77
2022-08-27T22:40:19.100Z,2.17
2022-08-27T22:42:46.302Z,2.40
2022-08-27T22:45:14.364Z,1.97
2022-08-27T22:47:41.359Z,2.00
2022-08-27T22:50:09.097Z,1.77
2022-08-27T22:52:36.500Z,1.70
2022-08-27T22:55:03.736Z,1.60
2022-08-27T22:57:30.408Z,1.50
2022-08-27T22:59:57.412Z,1.70
2022-08-27T23:02:25.292Z,2.77
2022-08-27T23:04:55.851Z,1.70
2022-08-27T23:07:22.871Z,1.70
2022-08-27T23:09:49.444Z,1.77
2022-08-27T23:12:15.992Z,1.63
2022-08-27T23:14:42.552Z,1.80
2022-08-27T23:17:09.083Z,2.20
2022-08-27T23:19:37.061Z,1.97
2022-08-27T23:22:06.372Z,1.70
2022-08-27T23:24:34.131Z,2.47
2022-08-27T23:27:00.657Z,1.73
2022-08-27T23:29:27.487Z,2.03
2022-08-27T23:31:54.480Z,1.70
2022-08-27T23:34:21.199Z,1.57
2022-08-27T23:36:49.493Z,2.70
2022-08-27T23:39:16.459Z,1.83
2022-08-27T23:41:43.529Z,1.80
2022-08-27T23:44:10.552Z,2.10
2022-08-27T23:46:37.488Z,2.10
2022-08-27T23:49:04.533Z,1.70
2022-08-27T23:51:31.208Z,2.23
2022-08-27T23:53:59.265Z,2.30
2022-08-27T23:56:30.010Z,2.40
2022-08-27T23:58:56.814Z,1.73
